createdAt,value
2023-04-24T00:02:49.575Z,99678.59
2023-04-24T00:07:53.677Z,99678.19
2023-04-24T00:12:55.195Z,99663.53
2023-04-24T00:17:56.715Z,99669.63
2023-04-24T00:22:58.268Z,99660.59
2023-04-24T00:27:59.721Z,99670.88
2023-04-24T00:33:01.232Z,99663.00
2023-04-24T00:38:02.758Z,99664.22
2023-04-24T00:43:04.550Z,99683.06
2023-04-24T00:48:06.546Z,99672.03
2023-04-24T00:53:08.050Z,99677.31
2023-04-24T00:58:09.651Z,99677.91
2023-04-24T01:03:12.110Z,99685.84
2023-04-24T01:08:15.036Z,99681.41
2023-04-24T01:13:16.569Z,99685.38
2023-04-24T01:18:18.068Z,99683.88
2023-04-24T01:23:19.995Z,99690.84
2023-04-24T01:28:22.185Z,99692.63
2023-04-24T01:33:24.114Z,99700.13
2023-04-24T01:38:25.924Z,99704.53
2023-04-24T01:43:27.662Z,99704.38
2023-04-24T01:48:29.321Z,99710.09
2023-04-24T01:53:30.860Z,99720.06
2023-04-24T01:58:32.813Z,99723.78
2023-04-24T02:03:34.538Z,99726.28
2023-04-24T02:08:36.413Z,99733.16
2023-04-24T02:13:37.996Z,99745.53
2023-04-24T02:18:39.565Z,99744.91
2023-04-24T02:23:41.129Z,99747.63
2023-04-24T02:28:42.592Z,99753.06
2023-04-24T02:33:44.104Z,99755.41
2023-04-24T02:38:45.666Z,99748.47
2023-04-24T02:43:47.208Z,99757.28
2023-04-24T02:48:48.677Z,99759.38
2023-04-24T02:53:50.244Z,99763.97
2023-04-24T02:58:51.866Z,99769.34
2023-04-24T03:03:53.620Z,99780.25
2023-04-24T03:08:55.590Z,99779.41
2023-04-24T03:13:57.159Z,99788.16
2023-04-24T03:18:58.623Z,99788.16
2023-04-24T03:24:00.187Z,99789.75
2023-04-24T03:29:02.744Z,99797.09
2023-04-24T03:34:04.348Z,99791.38
2023-04-24T03:39:06.373Z,99794.75
2023-04-24T03:44:07.921Z,99803.94
2023-04-24T03:49:09.442Z,99802.63
2023-04-24T03:54:11.340Z,99807.25
2023-04-24T03:59:12.889Z,99815.41
2023-04-24T04:04:14.420Z,99808.09
2023-04-24T04:09:16.404Z,99808.75
2023-04-24T04:14:17.940Z,99808.38
2023-04-24T04:19:19.418Z,99816.38
2023-04-24T04:24:25.057Z,99824.72
2023-04-24T04:29:26.982Z,99826.59
2023-04-24T04:34:28.523Z,99836.66
2023-04-24T04:39:31.511Z,99847.00
2023-04-24T04:44:33.104Z,99859.50
2023-04-24T04:49:35.610Z,99869.16
2023-04-24T04:54:37.137Z,99869.56
2023-04-24T04:59:38.667Z,99871.44
2023-04-24T05:04:41.053Z,99877.72
2023-04-24T05:09:42.907Z,99882.13
2023-04-24T05:14:44.521Z,99900.94
2023-04-24T05:19:46.369Z,99911.72
2023-04-24T05:24:48.984Z,99914.13
2023-04-24T05:29:50.703Z,99926.75
2023-04-24T05:34:52.258Z,99948.59
2023-04-24T05:39:53.773Z,99962.22
2023-04-24T05:44:57.861Z,99970.94
2023-04-24T05:49:59.506Z,99981.47
2023-04-24T05:55:01.016Z,100002.50
2023-04-24T06:00:02.633Z,100006.97
2023-04-24T06:05:05.811Z,100019.44
2023-04-24T06:10:08.003Z,100023.03
2023-04-24T06:15:09.939Z,100038.69
2023-04-24T06:20:12.439Z,100049.03
2023-04-24T06:25:14.076Z,100057.53
2023-04-24T06:30:15.726Z,100061.81
2023-04-24T06:35:17.426Z,100076.25
2023-04-24T06:40:19.760Z,100082.22
2023-04-24T06:45:21.234Z,100090.56
2023-04-24T06:50:22.861Z,100094.13
2023-04-24T06:55:24.388Z,100119.97
2023-04-24T07:00:26.235Z,100141.41
2023-04-24T07:05:27.840Z,100143.44
2023-04-24T07:10:29.573Z,100142.06
2023-04-24T07:15:31.448Z,100148.69
2023-04-24T07:20:34.159Z,100167.06
2023-04-24T07:25:35.763Z,100172.31
2023-04-24T07:30:37.270Z,100178.59
2023-04-24T07:35:39.061Z,100186.97
2023-04-24T07:40:40.588Z,100198.84
2023-04-24T07:45:42.134Z,100205.66
2023-04-24T07:50:43.643Z,100221.78
2023-04-24T07:55:45.108Z,100231.63
2023-04-24T08:00:48.270Z,100238.06
2023-04-24T08:05:52.011Z,100251.22
2023-04-24T08:10:53.520Z,100265.69
2023-04-24T08:15:55.094Z,100269.28
2023-04-24T08:20:57.154Z,100284.44
2023-04-24T08:25:58.802Z,100289.50
2023-04-24T08:31:00.411Z,100303.97
2023-04-24T08:36:03.802Z,100310.56
2023-04-24T08:41:06.019Z,100313.66
2023-04-24T08:46:11.568Z,100318.44
2023-04-24T08:51:13.745Z,100328.75
2023-04-24T08:56:15.338Z,100338.47
2023-04-24T09:01:17.294Z,100338.66
2023-04-24T09:06:19.972Z,100355.31
2023-04-24T09:11:21.632Z,100354.25
2023-04-24T09:16:25.287Z,100370.41
2023-04-24T09:21:33.433Z,100377.88
2023-04-24T09:26:37.958Z,100379.16
2023-04-24T09:31:39.481Z,100379.22
2023-04-24T09:36:43.808Z,100404.13
2023-04-24T09:41:47.917Z,100407.19
2023-04-24T09:47:01.577Z,100411.09
2023-04-24T09:52:10.980Z,100413.69
2023-04-24T09:57:12.480Z,100423.88
2023-04-24T10:02:21.055Z,100435.44
2023-04-24T10:07:22.615Z,100428.09
2023-04-24T10:12:24.447Z,100425.19
2023-04-24T10:17:27.003Z,100446.69
2023-04-24T10:22:30.846Z,100448.59
2023-04-24T10:27:32.975Z,100459.81
2023-04-24T10:32:34.508Z,100468.69
2023-04-24T10:37:41.954Z,100483.16
2023-04-24T10:42:43.741Z,100497.59
2023-04-24T10:47:53.271Z,100490.66
2023-04-24T10:53:05.550Z,100491.31
2023-04-24T10:58:07.074Z,100506.34
2023-04-24T11:03:34.277Z,100501.22
2023-04-24T11:08:46.664Z,100486.69
2023-04-24T11:13:57.508Z,100512.13
2023-04-24T11:19:20.359Z,100512.44
2023-04-24T11:24:31.972Z,100509.53
2023-04-24T11:29:44.363Z,100512.16
2023-04-24T11:34:54.687Z,100520.72
2023-04-24T11:39:58.306Z,100517.66
2023-04-24T11:45:01.416Z,100523.84
2023-04-24T11:50:04.896Z,100542.41
2023-04-24T11:55:09.956Z,100538.66
2023-04-24T12:00:18.296Z,100562.16
2023-04-24T12:05:31.865Z,100568.47
2023-04-24T12:10:34.399Z,100573.75
2023-04-24T12:15:35.991Z,100575.97
2023-04-24T12:20:37.470Z,100579.00
2023-04-24T12:25:39.796Z,100586.97
2023-04-24T12:30:49.304Z,100589.06
2023-04-24T12:35:56.486Z,100594.38
2023-04-24T12:41:06.258Z,100613.13
2023-04-24T12:46:07.814Z,100617.03
2023-04-24T12:51:09.297Z,100608.34
2023-04-24T12:56:10.881Z,100605.78
2023-04-24T13:01:12.496Z,100620.75
2023-04-24T13:06:14.045Z,100624.72
2023-04-24T13:11:15.788Z,100631.69
2023-04-24T13:16:17.353Z,100632.78
2023-04-24T13:21:18.938Z,100643.88
2023-04-24T13:26:20.859Z,100649.31
2023-04-24T13:31:22.463Z,100639.50
2023-04-24T13:36:24.103Z,100650.09
2023-04-24T13:41:25.770Z,100649.75
2023-04-24T13:46:27.382Z,100659.28
2023-04-24T13:51:29.120Z,100651.94
2023-04-24T13:56:30.587Z,100665.38
2023-04-24T14:01:32.337Z,100670.50
2023-04-24T14:06:34.318Z,100675.63
2023-04-24T14:11:36.239Z,100660.66
2023-04-24T14:16:38.027Z,100675.66
2023-04-24T14:21:39.683Z,100660.50
2023-04-24T14:26:41.243Z,100660.66
2023-04-24T14:31:43.372Z,100659.97
2023-04-24T14:36:44.933Z,100655.72
2023-04-24T14:41:46.665Z,100665.44
2023-04-24T14:46:49.770Z,100659.31
2023-04-24T14:51:51.347Z,100673.25
2023-04-24T14:56:52.869Z,100671.06
2023-04-24T15:02:14.608Z,100683.31
2023-04-24T15:07:16.935Z,100687.59
2023-04-24T15:12:18.452Z,100694.91
2023-04-24T15:17:19.939Z,100693.66
2023-04-24T15:22:21.541Z,100704.81
2023-04-24T15:27:23.077Z,100690.00
2023-04-24T15:32:24.696Z,100706.38
2023-04-24T15:37:26.238Z,100707.19
2023-04-24T15:42:27.765Z,100719.31
2023-04-24T15:47:29.442Z,100711.72
2023-04-24T15:52:31.616Z,100721.91
2023-04-24T15:57:33.279Z,100715.50
2023-04-24T16:02:34.846Z,100719.19
2023-04-24T16:07:38.521Z,100728.69
2023-04-24T16:12:40.024Z,100731.47
2023-04-24T16:17:41.762Z,100739.25
2023-04-24T16:22:43.287Z,100728.00
2023-04-24T16:27:46.679Z,100734.63
2023-04-24T16:32:48.274Z,100750.22
2023-04-24T16:37:49.857Z,100754.47
2023-04-24T16:42:52.770Z,100753.88
2023-04-24T16:47:54.343Z,100754.78
2023-04-24T16:52:55.906Z,100757.69
2023-04-24T16:57:57.452Z,100759.13
2023-04-24T17:02:59.032Z,100763.09
2023-04-24T17:08:00.964Z,100758.22
2023-04-24T17:13:02.487Z,100768.63
2023-04-24T17:18:05.627Z,100765.91
2023-04-24T17:23:07.292Z,100767.41
2023-04-24T17:28:26.902Z,100776.75
2023-04-24T17:33:30.514Z,100769.09
2023-04-24T17:38:32.357Z,100776.59
2023-04-24T17:43:33.940Z,100778.28
2023-04-24T17:48:35.637Z,100774.72
2023-04-24T17:53:37.493Z,100781.84
2023-04-24T17:58:39.165Z,100779.59
2023-04-24T18:03:40.890Z,100792.19
2023-04-24T18:08:42.844Z,100793.16
2023-04-24T18:13:46.133Z,100800.16
2023-04-24T18:18:48.006Z,100794.88
2023-04-24T18:23:49.743Z,100794.88
2023-04-24T18:28:51.336Z,100796.56
2023-04-24T18:33:54.293Z,100809.97
2023-04-24T18:38:55.857Z,100815.50
2023-04-24T18:43:59.160Z,100821.53
2023-04-24T18:49:00.683Z,100824.56
2023-04-24T18:54:02.232Z,100831.56
2023-04-24T18:59:03.825Z,100843.84
2023-04-24T19:04:05.481Z,100848.22
2023-04-24T19:09:07.177Z,100854.41
2023-04-24T19:14:08.700Z,100857.13
2023-04-24T19:19:10.458Z,100863.97
2023-04-24T19:24:12.199Z,100863.97
2023-04-24T19:29:13.696Z,100868.69
2023-04-24T19:34:15.168Z,100878.19
2023-04-24T19:39:16.739Z,100886.66
2023-04-24T19:44:18.640Z,100891.41
2023-04-24T19:49:20.179Z,100896.78
2023-04-24T19:54:21.789Z,100907.50
2023-04-24T19:59:23.269Z,100898.78
2023-04-24T20:04:24.899Z,100918.41
2023-04-24T20:09:26.789Z,100920.97
2023-04-24T20:14:28.337Z,100925.06
2023-04-24T20:19:30.180Z,100935.97
2023-04-24T20:24:31.799Z,100941.16
2023-04-24T20:29:33.432Z,100954.59
2023-04-24T20:34:34.925Z,100954.88
2023-04-24T20:39:37.215Z,100964.50
2023-04-24T20:44:38.766Z,100956.78
2023-04-24T20:49:40.453Z,100958.75
2023-04-24T20:54:42.035Z,100963.78
2023-04-24T20:59:43.567Z,100982.09
2023-04-24T21:04:45.060Z,100981.50
2023-04-24T21:09:46.559Z,100984.97
2023-04-24T21:14:51.050Z,100985.81
2023-04-24T21:19:52.977Z,100982.94
2023-04-24T21:24:54.590Z,100993.81
2023-04-24T21:29:56.278Z,100994.94
2023-04-24T21:34:59.385Z,100993.13
2023-04-24T21:40:00.928Z,100992.81
2023-04-24T21:45:02.616Z,100993.97
2023-04-24T21:50:05.549Z,100985.81
2023-04-24T21:55:07.403Z,100986.66
2023-04-24T22:00:11.381Z,100997.78
2023-04-24T22:05:15.870Z,100989.81
2023-04-24T22:10:17.663Z,100993.78
2023-04-24T22:15:19.292Z,100996.78
2023-04-24T22:20:21.459Z,101001.22
2023-04-24T22:25:22.951Z,101006.50
2023-04-24T22:30:24.432Z,101008.91
2023-04-24T22:35:25.947Z,101002.09
2023-04-24T22:40:27.523Z,101006.19
2023-04-24T22:45:29.073Z,101010.78
2023-04-24T22:50:30.999Z,101013.91
2023-04-24T22:55:32.579Z,101017.50
2023-04-24T23:00:34.171Z,101016.16
2023-04-24T23:05:36.023Z,101019.63
2023-04-24T23:10:38.186Z,101019.22
2023-04-24T23:15:39.738Z,101021.19
2023-04-24T23:20:41.598Z,101029.50
2023-04-24T23:25:43.095Z,101026.78
2023-04-24T23:30:44.697Z,101028.91
2023-04-24T23:35:46.355Z,101032.63
2023-04-24T23:40:47.886Z,101034.47
2023-04-24T23:45:49.484Z,101033.31
2023-04-24T23:50:51.064Z,101017.75
2023-04-24T23:55:52.616Z,101031.88
